GCFVGCLA

Guest
Details From GCFV - Fuerteventura
To GCLA - La Palma
Flight Number -
Tags decoded
Created
Modified
Stats Distance 209 nm / 388 km
Max Altitude 0 ft / 0 m
Waypoints 3
Social Downloads 7
Likes 0
Share VATSIM

Download

Looking for another format? Having issues loading an existing format? Contact us
Advertisement - Login to hide

Notes

Requested: GCFV ARACO GCLA

Route

GCFV ARACO GCLA

ID Type Via Altitude Latitude Longitude Leg Dist Tot Dist Heading (true) Name
O GCFV APT - 0 ft / 0 m 28.44788˚ -13.86489˚ - 0 nm - Fuerteventura
ARACO FIX - 0 ft / 0 m 28.43252˚ -17.45233˚ 189 nm 189 nm 271° / 269° -
O GCLA APT - 0 ft / 0 m 28.62648˚ -17.75561˚ 19 nm 209 nm 306° / 306° La Palma

Altitude Profile

Advertisement - Login to hide

Weather


0- 5 10 15 20 25 30 35+ Temperature / ° C

Clouds and Precipitation
Forecast for 2018-05-25 00:00 UTC. Updated an hour ago

Ground ~20,000 ft ~40,000 ft Winds

GCFV

Details ICAO GCFV (FUE)
Name Fuerteventura
Region Canary Islands
Timezone Atlantic/Canary (UTC+1.0)
Stats Elevation 85 ft / 26 m (AMSL)
Location 28.447882° -13.864892°
Runways 2
Magnetic Variation 4.048° W

METAR

GCFV 250000Z 34006KT 9999 FEW048 19/13 Q1018

Decode

TAF

TAF GCFV 242000Z 2421/2521 31011KT 9999 SCT035 TX25/2514Z TN16/2505Z TEMPO 2503/2508 01008KT BECMG 2508/2510 05010KT BECMG 2517/2519 34009KT

Decode

Departure Runways

ID Width Length Bearing (true) Bearing (mag) Surface Threshold Offset Overrun Length
01L 148 ft / 45 m 5,433 ft / 1,656 m 1.67° 5.72° Asphalt 0 ft / 0 m 984 ft / 300 m
01R 148 ft / 45 m 7,905 ft / 2,409 m 1.66° 5.71° Asphalt 0 ft / 0 m 3,281 ft / 1,000 m
19L 148 ft / 45 m 7,905 ft / 2,409 m 181.66° 185.71° Asphalt 0 ft / 0 m 197 ft / 60 m
19R 148 ft / 45 m 5,433 ft / 1,656 m 181.67° 185.72° Asphalt 0 ft / 0 m 820 ft / 250 m

GCLA

Details ICAO GCLA (SPC)
Name La Palma
Region Canary Islands
Timezone Atlantic/Canary (UTC+1.0)
Stats Elevation 107 ft / 33 m (AMSL)
Location 28.626480° -17.755613°
Runways 1
Magnetic Variation 5.470° W

METAR

GCLA 250000Z AUTO VRB04KT 9999 FEW057 19/11 Q1020

Decode

TAF

TAF GCLA 242000Z 2421/2521 04014KT 9999 BKN045 TX23/2514Z TN17/2505Z TEMPO 2421/2509 34004KT

Decode

Destination Runways

ID Width Length Bearing (true) Bearing (mag) Surface Threshold Offset Overrun Length
01 148 ft / 45 m 7,240 ft / 2,207 m 359.02° 4.49° Asphalt 0 ft / 0 m 279 ft / 85 m
19 148 ft / 45 m 7,240 ft / 2,207 m 179.02° 184.49° Asphalt 0 ft / 0 m 236 ft / 72 m

Popular Alternatives